Time;durP1;ratioP1;P1;durP2;ratioP2;P2;SDS_P1;SDS_P2;PMS_P1;PMS_P2;Temp;Humidity;BMP_temperature;BMP_pressure;BME280_temperature;BME280_humidity;BME280_pressure;Samples;Min_cycle;Max_cycle;Signal;HPM_P1;HPM_P2
2022/05/28 00:00:26;;;;;;;7.95;3.92;;;;;;;;;;4913846;28;20134;-61
2022/05/28 00:02:51;;;;;;;5.38;3.40;;;;;;;;;;4912738;28;20401;-62
2022/05/28 00:05:17;;;;;;;4.95;2.65;;;;;;;;;;4914226;28;20512;-61
2022/05/28 00:07:42;;;;;;;4.60;2.92;;;;;;;;;;4913100;28;20580;-61
2022/05/28 00:10:10;;;;;;;5.43;3.30;;;;;;;;;;4912714;28;20441;-63
2022/05/28 00:12:35;;;;;;;5.22;2.95;;;;;;;;;;4912988;28;20311;-61
2022/05/28 00:15:01;;;;;;;4.03;2.40;;;;;;;;;;4912815;28;20405;-61
2022/05/28 00:17:26;;;;;;;4.28;2.47;;;;;;;;;;4912740;28;20390;-61
2022/05/28 00:19:52;;;;;;;5.90;2.60;;;;;;;;;;4912765;28;20348;-61
2022/05/28 00:22:18;;;;;;;4.85;2.83;;;;;;;;;;4913409;28;20489;-61
2022/05/28 00:24:43;;;;;;;4.30;2.95;;;;;;;;;;4913624;28;20322;-61
2022/05/28 00:27:08;;;;;;;5.13;2.60;;;;;;;;;;4876955;28;1096364;-61
2022/05/28 00:29:34;;;;;;;4.35;2.83;;;;;;;;;;4913828;28;20362;-61
2022/05/28 00:31:59;;;;;;;4.95;2.70;;;;;;;;;;4913664;28;20453;-62
2022/05/28 00:34:25;;;;;;;4.35;2.55;;;;;;;;;;4914588;28;20543;-61
2022/05/28 00:36:51;;;;;;;5.43;2.97;;;;;;;;;;4913585;28;20054;-61
2022/05/28 00:39:16;;;;;;;4.93;2.72;;;;;;;;;;4913150;28;20027;-62
2022/05/28 00:41:41;;;;;;;3.95;2.40;;;;;;;;;;4913267;28;20053;-61
2022/05/28 00:44:07;;;;;;;3.67;2.38;;;;;;;;;;4913404;28;20326;-61
2022/05/28 00:46:33;;;;;;;5.03;2.50;;;;;;;;;;4913520;28;20433;-61
2022/05/28 00:49:02;;;;;;;3.85;2.47;;;;;;;;;;4913089;28;20429;-62
2022/05/28 00:51:30;;;;;;;5.25;2.72;;;;;;;;;;4913936;28;20442;-62
2022/05/28 00:53:59;;;;;;;4.50;3.03;;;;;;;;;;4911697;28;20332;-61
2022/05/28 00:56:26;;;;;;;3.45;2.30;;;;;;;;;;4911569;28;20470;-63
2022/05/28 00:58:52;;;;;;;4.95;2.83;;;;;;;;;;4913088;28;20370;-61
2022/05/28 01:01:20;;;;;;;4.47;2.88;;;;;;;;;;4910929;28;20105;-62
2022/05/28 01:04:11;;;;;;;4.90;2.72;;;;;;;;;;4913952;28;20338;-61
2022/05/28 01:06:42;;;;;;;5.63;2.47;;;;;;;;;;4913052;28;20118;-62
2022/05/28 01:09:15;;;;;;;5.07;2.95;;;;;;;;;;4912921;28;20398;-61
2022/05/28 01:11:46;;;;;;;5.03;2.78;;;;;;;;;;4911569;28;20453;-61
2022/05/28 01:14:25;;;;;;;5.53;2.80;;;;;;;;;;4913362;28;20023;-61
2022/05/28 01:17:31;;;;;;;7.50;2.45;;;;;;;;;;4913644;28;20408;-62
2022/05/28 01:20:22;;;;;;;4.28;2.30;;;;;;;;;;4879917;28;20350;-62
2022/05/28 01:23:15;;;;;;;4.10;1.80;;;;;;;;;;4910969;28;20430;-61
2022/05/28 01:25:59;;;;;;;4.95;3.00;;;;;;;;;;4910991;28;20442;-62
2022/05/28 01:28:28;;;;;;;3.20;2.10;;;;;;;;;;4912685;28;20429;-62
2022/05/28 01:30:54;;;;;;;5.18;2.30;;;;;;;;;;4913383;28;20440;-61
2022/05/28 01:33:20;;;;;;;6.40;2.60;;;;;;;;;;4912519;28;20459;-62
2022/05/28 01:35:46;;;;;;;3.58;2.35;;;;;;;;;;4910345;28;20126;-62
2022/05/28 01:38:12;;;;;;;5.05;2.70;;;;;;;;;;4911049;28;20472;-62
2022/05/28 01:40:38;;;;;;;3.42;2.45;;;;;;;;;;4911518;28;20440;-61
2022/05/28 01:43:07;;;;;;;5.15;2.47;;;;;;;;;;4913551;28;20479;-61
2022/05/28 01:45:33;;;;;;;4.67;2.17;;;;;;;;;;4909477;28;20089;-62
2022/05/28 01:48:01;;;;;;;5.18;2.40;;;;;;;;;;4910699;28;20450;-62
2022/05/28 01:50:27;;;;;;;4.13;3.00;;;;;;;;;;4910524;28;20035;-62
2022/05/28 01:52:54;;;;;;;4.38;2.30;;;;;;;;;;4911153;28;20019;-62
2022/05/28 01:55:21;;;;;;;5.45;2.55;;;;;;;;;;4912245;28;20081;-61
2022/05/28 01:57:47;;;;;;;4.38;2.40;;;;;;;;;;4910390;28;20061;-63
2022/05/28 02:00:13;;;;;;;4.65;3.00;;;;;;;;;;4912143;28;20039;-61
2022/05/28 02:02:38;;;;;;;4.13;2.40;;;;;;;;;;4911811;28;20121;-61
2022/05/28 02:05:04;;;;;;;4.53;2.03;;;;;;;;;;4912160;28;20121;-61
2022/05/28 02:07:30;;;;;;;4.03;2.00;;;;;;;;;;4911498;28;20454;-62
2022/05/28 02:10:01;;;;;;;3.70;2.38;;;;;;;;;;4912244;28;20484;-61
2022/05/28 02:12:45;;;;;;;4.00;2.30;;;;;;;;;;4910186;28;20323;-62
2022/05/28 02:15:30;;;;;;;3.55;2.10;;;;;;;;;;4911907;28;20430;-61
2022/05/28 02:18:00;;;;;;;4.43;2.42;;;;;;;;;;4910558;28;20434;-62
2022/05/28 02:20:35;;;;;;;4.15;2.55;;;;;;;;;;4911912;28;20373;-61
2022/05/28 02:23:05;;;;;;;4.05;2.42;;;;;;;;;;4910249;28;20460;-61
2022/05/28 02:25:37;;;;;;;4.65;2.25;;;;;;;;;;4911491;28;20345;-62
2022/05/28 02:28:03;;;;;;;5.72;2.58;;;;;;;;;;4932565;28;20084;-61
2022/05/28 02:30:29;;;;;;;4.00;1.98;;;;;;;;;;4932172;28;20424;-62
2022/05/28 02:33:04;;;;;;;3.40;2.35;;;;;;;;;;4932594;28;20400;-61
2022/05/28 02:35:29;;;;;;;2.53;1.73;;;;;;;;;;4950025;28;20353;-63
2022/05/28 02:37:55;;;;;;;4.95;2.90;;;;;;;;;;4950022;28;20369;-61
2022/05/28 02:40:20;;;;;;;4.05;2.38;;;;;;;;;;4932358;28;20445;-61
2022/05/28 02:42:45;;;;;;;3.67;2.13;;;;;;;;;;4949854;28;20373;-61
2022/05/28 02:45:11;;;;;;;4.57;2.28;;;;;;;;;;4950987;28;20440;-61
2022/05/28 02:47:37;;;;;;;4.80;2.35;;;;;;;;;;4949890;28;20034;-61
2022/05/28 02:50:03;;;;;;;4.35;2.40;;;;;;;;;;4950292;28;20419;-61
2022/05/28 02:52:28;;;;;;;4.20;2.33;;;;;;;;;;4949521;28;20384;-62
2022/05/28 02:54:54;;;;;;;5.68;2.60;;;;;;;;;;4932254;28;20081;-61
2022/05/28 02:57:19;;;;;;;3.72;2.35;;;;;;;;;;4951194;28;20038;-62
2022/05/28 02:59:44;;;;;;;4.10;2.30;;;;;;;;;;4949897;28;20503;-61
2022/05/28 03:02:10;;;;;;;3.88;2.20;;;;;;;;;;4950340;28;20180;-61
2022/05/28 03:04:35;;;;;;;3.90;2.13;;;;;;;;;;4949940;28;20399;-63
2022/05/28 03:07:00;;;;;;;4.32;2.20;;;;;;;;;;4950650;28;20348;-61
2022/05/28 03:09:26;;;;;;;3.25;2.00;;;;;;;;;;4949663;28;20417;-62
2022/05/28 03:11:51;;;;;;;2.70;1.98;;;;;;;;;;4949826;28;20498;-62
2022/05/28 03:14:17;;;;;;;4.75;2.28;;;;;;;;;;4949713;28;20484;-61
2022/05/28 03:16:43;;;;;;;4.22;1.98;;;;;;;;;;4949226;28;20631;-61
2022/05/28 03:19:09;;;;;;;5.32;2.20;;;;;;;;;;4949901;28;20440;-63
2022/05/28 03:21:34;;;;;;;5.18;2.38;;;;;;;;;;4949720;28;20388;-61
2022/05/28 03:24:00;;;;;;;3.13;1.95;;;;;;;;;;4949859;28;20065;-62
2022/05/28 03:26:28;;;;;;;3.72;1.80;;;;;;;;;;4934338;28;20320;-62
2022/05/28 03:28:56;;;;;;;4.03;2.15;;;;;;;;;;4912648;28;20054;-62
2022/05/28 03:31:22;;;;;;;3.30;1.75;;;;;;;;;;4910848;28;20370;-61
2022/05/28 03:33:48;;;;;;;3.55;1.90;;;;;;;;;;4911218;28;20053;-61
2022/05/28 03:36:13;;;;;;;3.78;2.10;;;;;;;;;;4911007;28;20027;-61
2022/05/28 03:38:38;;;;;;;3.63;2.08;;;;;;;;;;4911201;28;20434;-61
2022/05/28 03:41:04;;;;;;;4.22;2.30;;;;;;;;;;4910698;28;20080;-62
2022/05/28 03:43:30;;;;;;;4.32;2.10;;;;;;;;;;4910902;28;20354;-61
2022/05/28 03:45:55;;;;;;;4.05;2.13;;;;;;;;;;4911385;28;20319;-61
2022/05/28 03:48:22;;;;;;;3.13;2.10;;;;;;;;;;4910937;28;20102;-61
2022/05/28 03:50:47;;;;;;;2.90;1.92;;;;;;;;;;4911589;28;20086;-61
2022/05/28 03:53:12;;;;;;;5.72;2.45;;;;;;;;;;4910652;28;20435;-61
2022/05/28 03:55:39;;;;;;;5.15;2.40;;;;;;;;;;4910721;28;20345;-61
2022/05/28 03:58:05;;;;;;;4.78;2.28;;;;;;;;;;4910099;28;20452;-61
2022/05/28 04:00:30;;;;;;;3.55;2.30;;;;;;;;;;4915078;28;20084;-62
2022/05/28 04:02:56;;;;;;;4.45;2.10;;;;;;;;;;4914332;28;20173;-62
2022/05/28 04:05:23;;;;;;;3.47;2.13;;;;;;;;;;4914178;28;20022;-62
2022/05/28 04:07:48;;;;;;;4.85;2.53;;;;;;;;;;4914745;28;20438;-62
2022/05/28 04:10:14;;;;;;;4.65;2.30;;;;;;;;;;4914538;28;20427;-62
2022/05/28 04:12:40;;;;;;;3.47;2.47;;;;;;;;;;4914159;28;20054;-62
2022/05/28 04:15:06;;;;;;;3.38;2.28;;;;;;;;;;4913943;28;20361;-61
2022/05/28 04:17:31;;;;;;;4.50;2.45;;;;;;;;;;4913715;28;20385;-61
2022/05/28 04:19:56;;;;;;;4.03;2.50;;;;;;;;;;4914881;28;20031;-62
2022/05/28 04:22:22;;;;;;;5.68;2.53;;;;;;;;;;4914949;28;20436;-61
2022/05/28 04:24:47;;;;;;;3.38;2.10;;;;;;;;;;4914072;28;20359;-61
2022/05/28 04:27:12;;;;;;;4.20;2.28;;;;;;;;;;4913871;28;20174;-61
2022/05/28 04:29:38;;;;;;;4.03;2.03;;;;;;;;;;4913573;28;20441;-61
2022/05/28 04:32:04;;;;;;;3.22;2.05;;;;;;;;;;4914704;28;20440;-61
2022/05/28 04:34:29;;;;;;;4.57;2.50;;;;;;;;;;4914049;28;20385;-61
2022/05/28 04:36:54;;;;;;;4.25;2.40;;;;;;;;;;4913842;28;20350;-61
2022/05/28 04:39:19;;;;;;;4.25;2.50;;;;;;;;;;4913536;28;20477;-62
2022/05/28 04:41:45;;;;;;;3.35;2.15;;;;;;;;;;4913877;28;20369;-61
2022/05/28 04:44:10;;;;;;;3.95;2.33;;;;;;;;;;4913547;28;20414;-61
2022/05/28 04:46:35;;;;;;;4.20;2.35;;;;;;;;;;4913982;28;20058;-61
2022/05/28 04:49:01;;;;;;;4.20;2.35;;;;;;;;;;4913124;28;20512;-62
2022/05/28 04:51:26;;;;;;;4.93;2.50;;;;;;;;;;4913595;28;20331;-61
2022/05/28 04:53:51;;;;;;;3.38;2.20;;;;;;;;;;4913090;28;20092;-62
2022/05/28 04:56:17;;;;;;;4.82;3.03;;;;;;;;;;4913730;28;20019;-63
2022/05/28 04:58:42;;;;;;;5.55;2.50;;;;;;;;;;4912973;28;20442;-61
2022/05/28 05:01:12;;;;;;;4.88;2.40;;;;;;;;;;4914755;28;20426;-62
2022/05/28 05:03:37;;;;;;;4.72;2.50;;;;;;;;;;4913102;28;20339;-61
2022/05/28 05:06:02;;;;;;;3.38;2.10;;;;;;;;;;4913034;28;20334;-61
2022/05/28 05:08:28;;;;;;;3.67;2.30;;;;;;;;;;4913220;28;20453;-62
2022/05/28 05:10:53;;;;;;;4.18;2.75;;;;;;;;;;4911670;28;20098;-61
2022/05/28 05:13:18;;;;;;;3.75;2.22;;;;;;;;;;4914447;28;20404;-62
2022/05/28 05:15:44;;;;;;;2.60;2.00;;;;;;;;;;4913039;28;20171;-61
2022/05/28 05:18:09;;;;;;;4.90;2.88;;;;;;;;;;4912972;28;20464;-61
2022/05/28 05:20:34;;;;;;;5.95;2.75;;;;;;;;;;4913049;28;20414;-61
2022/05/28 05:23:01;;;;;;;4.10;2.58;;;;;;;;;;4912648;28;20434;-62
2022/05/28 05:25:26;;;;;;;4.93;2.53;;;;;;;;;;4911445;28;20132;-61
2022/05/28 05:27:52;;;;;;;5.75;2.50;;;;;;;;;;4913486;28;20122;-61
2022/05/28 05:30:17;;;;;;;6.13;2.58;;;;;;;;;;4912607;28;20427;-62
2022/05/28 05:32:42;;;;;;;4.47;2.58;;;;;;;;;;4913890;28;20342;-62
2022/05/28 05:35:08;;;;;;;4.20;2.45;;;;;;;;;;4913405;28;20169;-62
2022/05/28 05:37:34;;;;;;;4.38;2.83;;;;;;;;;;4912039;28;20031;-61
2022/05/28 05:39:59;;;;;;;4.57;2.53;;;;;;;;;;4912655;28;20326;-61
2022/05/28 05:42:24;;;;;;;2.90;2.08;;;;;;;;;;4912454;28;20369;-62
2022/05/28 05:44:50;;;;;;;3.75;2.50;;;;;;;;;;4913243;28;21013;-61
2022/05/28 05:47:15;;;;;;;4.78;2.50;;;;;;;;;;4914306;28;20457;-61
2022/05/28 05:49:40;;;;;;;6.13;2.45;;;;;;;;;;4912096;28;20329;-63
2022/05/28 05:52:06;;;;;;;3.97;2.25;;;;;;;;;;4911959;28;20438;-62
2022/05/28 05:54:32;;;;;;;5.68;2.42;;;;;;;;;;4911567;28;20092;-65
2022/05/28 05:56:57;;;;;;;4.25;2.50;;;;;;;;;;4911921;28;20402;-62
2022/05/28 05:59:22;;;;;;;4.18;1.90;;;;;;;;;;4912037;28;20531;-61
2022/05/28 06:01:48;;;;;;;3.08;1.90;;;;;;;;;;4911325;28;20385;-62
2022/05/28 06:04:14;;;;;;;4.07;1.73;;;;;;;;;;4911919;28;20426;-62
2022/05/28 06:06:39;;;;;;;4.47;1.90;;;;;;;;;;4911987;28;20414;-62
2022/05/28 06:09:05;;;;;;;2.33;1.77;;;;;;;;;;4912108;28;20097;-61
2022/05/28 06:11:31;;;;;;;3.90;2.03;;;;;;;;;;4911905;28;20434;-61
2022/05/28 06:13:56;;;;;;;3.08;2.00;;;;;;;;;;4912228;28;20365;-62
2022/05/28 06:16:22;;;;;;;4.75;2.15;;;;;;;;;;4911599;28;20602;-61
2022/05/28 06:18:47;;;;;;;6.82;1.50;;;;;;;;;;4910051;28;20374;-62
2022/05/28 06:21:13;;;;;;;2.85;1.80;;;;;;;;;;4911385;28;20050;-63
2022/05/28 06:23:39;;;;;;;3.38;1.65;;;;;;;;;;4911446;28;20030;-62
2022/05/28 06:26:05;;;;;;;3.58;1.92;;;;;;;;;;4911172;28;20532;-62
2022/05/28 06:28:30;;;;;;;4.38;1.92;;;;;;;;;;4911625;28;20381;-61
2022/05/28 06:31:04;;;;;;;4.68;1.85;;;;;;;;;;4911718;28;20062;-62
2022/05/28 06:33:29;;;;;;;3.25;1.50;;;;;;;;;;4911519;28;20430;-64
2022/05/28 06:35:58;;;;;;;2.88;1.60;;;;;;;;;;4911517;28;20464;-62
2022/05/28 06:38:24;;;;;;;3.17;1.33;;;;;;;;;;4913164;28;20389;-62
2022/05/28 06:40:50;;;;;;;4.35;1.63;;;;;;;;;;4912286;28;20327;-61
2022/05/28 06:43:16;;;;;;;4.28;2.40;;;;;;;;;;4911469;28;20341;-62
2022/05/28 06:45:41;;;;;;;4.05;1.77;;;;;;;;;;4911161;28;20461;-62
2022/05/28 06:48:07;;;;;;;2.20;1.13;;;;;;;;;;4911298;28;20413;-63
2022/05/28 06:53:16;;;;;;;4.60;1.92;;;;;;;;;;4911860;28;20054;-62
2022/05/28 06:55:42;;;;;;;6.50;1.80;;;;;;;;;;4911613;28;20421;-62
2022/05/28 06:58:07;;;;;;;6.68;1.80;;;;;;;;;;4910915;28;20414;-62
2022/05/28 07:00:36;;;;;;;4.63;1.77;;;;;;;;;;4910830;28;20541;-62
2022/05/28 07:03:03;;;;;;;4.05;1.40;;;;;;;;;;4912292;28;20433;-63
2022/05/28 07:05:28;;;;;;;2.85;1.20;;;;;;;;;;4911603;28;20398;-62
2022/05/28 07:07:54;;;;;;;4.68;1.50;;;;;;;;;;4910972;28;20110;-62
2022/05/28 07:10:20;;;;;;;2.30;1.23;;;;;;;;;;4911080;28;20342;-62
2022/05/28 07:12:45;;;;;;;3.47;1.38;;;;;;;;;;4911903;28;20034;-62
2022/05/28 07:15:10;;;;;;;1.75;1.30;;;;;;;;;;4910933;28;20326;-62
2022/05/28 07:17:36;;;;;;;3.65;1.48;;;;;;;;;;4909283;28;20038;-62
2022/05/28 07:20:01;;;;;;;2.80;1.38;;;;;;;;;;4912219;28;20378;-62
2022/05/28 07:22:27;;;;;;;2.75;1.45;;;;;;;;;;4911586;28;20526;-62
2022/05/28 07:24:52;;;;;;;3.47;1.30;;;;;;;;;;4911232;28;20330;-62
2022/05/28 07:27:18;;;;;;;3.58;1.55;;;;;;;;;;4910568;28;20478;-62
2022/05/28 07:29:44;;;;;;;3.80;1.42;;;;;;;;;;4911009;28;20338;-62
2022/05/28 07:32:09;;;;;;;3.53;1.48;;;;;;;;;;4912576;28;20306;-63
2022/05/28 07:34:35;;;;;;;3.40;1.40;;;;;;;;;;4912498;28;20427;-62
2022/05/28 07:37:00;;;;;;;4.32;1.63;;;;;;;;;;4914610;28;20492;-62
2022/05/28 07:39:26;;;;;;;3.55;1.67;;;;;;;;;;4915715;28;20058;-64
2022/05/28 07:41:51;;;;;;;3.85;1.10;;;;;;;;;;4914822;28;20385;-62
2022/05/28 07:44:17;;;;;;;3.67;0.95;;;;;;;;;;4915151;28;20341;-62
2022/05/28 07:46:42;;;;;;;2.80;0.90;;;;;;;;;;4914434;28;20362;-62
2022/05/28 07:49:08;;;;;;;6.22;1.17;;;;;;;;;;4914401;28;20438;-62
2022/05/28 07:51:35;;;;;;;2.67;1.23;;;;;;;;;;4914328;28;20102;-62
2022/05/28 07:54:00;;;;;;;1.55;0.85;;;;;;;;;;4915384;28;20330;-62
2022/05/28 07:56:26;;;;;;;1.92;1.02;;;;;;;;;;4915242;28;20362;-62
2022/05/28 07:58:51;;;;;;;2.63;1.10;;;;;;;;;;4914294;28;20195;-62
2022/05/28 08:01:19;;;;;;;4.40;1.05;;;;;;;;;;4914204;28;20488;-62
2022/05/28 08:03:45;;;;;;;1.63;1.17;;;;;;;;;;4914299;28;20460;-62
2022/05/28 08:06:10;;;;;;;1.90;1.00;;;;;;;;;;4914260;28;20349;-62
2022/05/28 08:08:35;;;;;;;1.63;0.93;;;;;;;;;;4914223;28;20458;-62
2022/05/28 08:11:00;;;;;;;3.22;1.02;;;;;;;;;;4914362;28;20532;-62
2022/05/28 08:13:26;;;;;;;3.05;1.10;;;;;;;;;;4914159;28;20442;-64
2022/05/28 08:15:54;;;;;;;2.65;0.88;;;;;;;;;;4914102;28;20508;-62
2022/05/28 08:18:23;;;;;;;4.30;1.08;;;;;;;;;;4914755;28;20085;-62
2022/05/28 08:23:33;;;;;;;3.17;0.98;;;;;;;;;;4902680;28;20209;-62
2022/05/28 08:25:59;;;;;;;3.22;1.02;;;;;;;;;;4915037;28;20042;-62
2022/05/28 08:28:24;;;;;;;3.72;1.60;;;;;;;;;;4914181;28;20058;-61
2022/05/28 08:30:49;;;;;;;2.17;1.08;;;;;;;;;;4913201;28;20410;-63
2022/05/28 08:33:17;;;;;;;4.82;1.02;;;;;;;;;;4913656;28;20456;-63
2022/05/28 08:35:43;;;;;;;4.13;0.85;;;;;;;;;;4911962;28;20046;-62
2022/05/28 08:38:11;;;;;;;3.00;1.25;;;;;;;;;;4914108;28;20354;-62
2022/05/28 08:40:46;;;;;;;1.80;0.75;;;;;;;;;;4913661;28;20441;-62
2022/05/28 08:43:12;;;;;;;3.30;0.90;;;;;;;;;;4912362;28;20377;-65
2022/05/28 08:45:38;;;;;;;3.15;1.00;;;;;;;;;;4911982;28;20412;-62
2022/05/28 08:48:03;;;;;;;2.90;0.90;;;;;;;;;;4913249;28;20430;-62
2022/05/28 08:50:29;;;;;;;4.05;1.17;;;;;;;;;;4914176;28;20434;-62
2022/05/28 08:53:15;;;;;;;1.92;0.70;;;;;;;;;;4913278;28;20480;-63
2022/05/28 08:55:43;;;;;;;3.40;0.95;;;;;;;;;;4913319;28;20129;-62
2022/05/28 08:58:12;;;;;;;2.40;0.80;;;;;;;;;;4913235;28;20031;-62
2022/05/28 09:00:57;;;;;;;1.63;0.90;;;;;;;;;;4911725;28;20266;-62
2022/05/28 09:03:29;;;;;;;2.72;0.93;;;;;;;;;;4911894;28;20054;-62
2022/05/28 09:06:07;;;;;;;2.35;0.80;;;;;;;;;;4911434;28;20471;-63
2022/05/28 09:08:42;;;;;;;3.13;0.90;;;;;;;;;;4913048;28;20462;-62
2022/05/28 09:11:46;;;;;;;2.42;0.93;;;;;;;;;;4912958;28;20445;-62
2022/05/28 09:14:25;;;;;;;1.70;0.80;;;;;;;;;;4912863;28;20430;-62
2022/05/28 09:17:00;;;;;;;6.18;1.20;;;;;;;;;;4912970;28;20437;-62
2022/05/28 09:19:30;;;;;;;2.90;0.80;;;;;;;;;;4910976;28;20034;-62
2022/05/28 09:21:55;;;;;;;3.03;0.77;;;;;;;;;;4913850;28;20457;-63
2022/05/28 09:24:23;;;;;;;1.60;0.90;;;;;;;;;;4912975;28;20645;-62
2022/05/28 09:26:57;;;;;;;2.15;0.70;;;;;;;;;;4912035;28;20401;-62
2022/05/28 09:29:53;;;;;;;2.00;0.90;;;;;;;;;;4912478;28;20338;-62
2022/05/28 09:32:32;;;;;;;1.65;0.75;;;;;;;;;;4912928;28;20366;-63
2022/05/28 09:35:02;;;;;;;1.92;0.70;;;;;;;;;;4912369;28;20458;-62
2022/05/28 09:38:03;;;;;;;2.45;1.08;;;;;;;;;;4910852;28;20415;-63
2022/05/28 09:40:42;;;;;;;2.45;0.60;;;;;;;;;;4913552;28;20370;-63
2022/05/28 09:43:32;;;;;;;1.15;0.52;;;;;;;;;;4910951;28;20512;-62
2022/05/28 09:46:17;;;;;;;0.93;0.45;;;;;;;;;;4911918;28;20050;-63
2022/05/28 09:48:43;;;;;;;2.92;0.60;;;;;;;;;;4910938;28;20054;-62
2022/05/28 09:51:23;;;;;;;1.67;0.68;;;;;;;;;;4911985;28;20500;-62
2022/05/28 09:56:41;;;;;;;1.05;0.63;;;;;;;;;;4912230;28;20097;-62
2022/05/28 09:59:29;;;;;;;1.77;0.70;;;;;;;;;;4912620;28;20022;-62
2022/05/28 10:01:57;;;;;;;1.45;0.50;;;;;;;;;;4882534;28;20481;-62
2022/05/28 10:04:29;;;;;;;3.90;0.70;;;;;;;;;;4912149;28;20442;-63
2022/05/28 10:06:57;;;;;;;2.42;0.80;;;;;;;;;;4910543;28;20155;-62
2022/05/28 10:09:33;;;;;;;2.45;0.70;;;;;;;;;;4912600;28;20446;-62
2022/05/28 10:12:14;;;;;;;2.55;0.60;;;;;;;;;;4911696;28;20437;-63
2022/05/28 10:14:40;;;;;;;1.60;0.55;;;;;;;;;;4910057;28;20426;-63
2022/05/28 10:17:05;;;;;;;1.50;0.68;;;;;;;;;;4910748;28;20110;-63
2022/05/28 10:19:37;;;;;;;2.95;1.00;;;;;;;;;;4911406;28;20369;-63
2022/05/28 10:22:04;;;;;;;2.05;0.60;;;;;;;;;;4912583;28;20442;-63
2022/05/28 10:24:40;;;;;;;2.63;0.77;;;;;;;;;;4911784;28;20357;-62
2022/05/28 10:27:05;;;;;;;2.60;0.75;;;;;;;;;;4921276;28;20450;-63
2022/05/28 10:29:45;;;;;;;4.15;0.82;;;;;;;;;;4929894;28;20456;-62
2022/05/28 10:32:29;;;;;;;2.88;0.60;;;;;;;;;;4929720;28;20348;-62
2022/05/28 10:35:22;;;;;;;2.45;0.80;;;;;;;;;;4930712;28;20495;-63
2022/05/28 10:37:47;;;;;;;2.58;0.80;;;;;;;;;;4930723;28;20579;-63
2022/05/28 10:40:19;;;;;;;1.45;0.80;;;;;;;;;;4931692;28;20446;-62
2022/05/28 10:42:46;;;;;;;0.98;0.63;;;;;;;;;;4930784;28;20026;-62
2022/05/28 10:45:15;;;;;;;2.70;0.80;;;;;;;;;;4930243;28;20434;-62
2022/05/28 10:48:18;;;;;;;1.60;0.73;;;;;;;;;;4929180;28;20429;-62
2022/05/28 10:51:02;;;;;;;5.93;1.90;;;;;;;;;;4931137;28;20354;-63
2022/05/28 10:53:41;;;;;;;1.23;0.82;;;;;;;;;;4929239;28;20512;-63
2022/05/28 10:56:44;;;;;;;1.17;0.47;;;;;;;;;;4929081;28;20564;-62
2022/05/28 10:59:28;;;;;;;1.92;0.75;;;;;;;;;;4930291;28;20050;-63
2022/05/28 11:02:17;;;;;;;5.90;0.80;;;;;;;;;;4930461;28;20365;-62
2022/05/28 11:04:57;;;;;;;1.70;0.68;;;;;;;;;;4930380;28;20052;-63
2022/05/28 11:08:27;;;;;;;2.67;1.10;;;;;;;;;;4930349;28;20430;-62
2022/05/28 11:11:12;;;;;;;1.83;0.75;;;;;;;;;;4864414;28;20046;-63
2022/05/28 11:14:10;;;;;;;1.23;0.88;;;;;;;;;;4932375;28;20342;-63
2022/05/28 11:16:41;;;;;;;1.90;0.73;;;;;;;;;;4932628;28;20575;-63
2022/05/28 11:19:18;;;;;;;1.38;0.70;;;;;;;;;;4933888;28;20441;-62
2022/05/28 11:21:56;;;;;;;1.60;0.52;;;;;;;;;;4933877;28;20323;-62
2022/05/28 11:24:47;;;;;;;3.13;0.85;;;;;;;;;;4934112;28;20437;-67
2022/05/28 11:27:31;;;;;;;1.30;0.50;;;;;;;;;;4916439;28;20424;-63
2022/05/28 11:30:05;;;;;;;1.42;0.70;;;;;;;;;;4933581;28;20361;-63
2022/05/28 11:32:34;;;;;;;1.52;0.60;;;;;;;;;;4932836;28;20445;-63
2022/05/28 11:35:25;;;;;;;4.00;0.70;;;;;;;;;;4932927;28;20035;-63
2022/05/28 11:38:01;;;;;;;1.50;0.60;;;;;;;;;;4933645;28;20512;-62
2022/05/28 11:40:34;;;;;;;1.00;0.52;;;;;;;;;;4932672;28;20173;-64
2022/05/28 11:43:17;;;;;;;2.08;1.38;;;;;;;;;;4932467;28;20022;-62
2022/05/28 11:45:54;;;;;;;1.02;0.68;;;;;;;;;;4934140;28;20457;-63
2022/05/28 11:48:25;;;;;;;1.00;0.60;;;;;;;;;;4933733;28;20302;-62
2022/05/28 11:53:52;;;;;;;2.00;0.67;;;;;;;;;;4932267;28;20061;-63
2022/05/28 11:56:22;;;;;;;1.90;0.45;;;;;;;;;;4933360;28;20429;-63
2022/05/28 11:59:01;;;;;;;2.17;0.60;;;;;;;;;;4934299;28;20416;-63
2022/05/28 12:01:30;;;;;;;;;;;;;;;;;;4934160;28;20433;-63
2022/05/28 12:03:55;;;;;;;2.65;0.55;;;;;;;;;;4932915;28;20348;-63
2022/05/28 12:06:29;;;;;;;0.95;0.60;;;;;;;;;;4934391;28;20608;-62
2022/05/28 12:09:00;;;;;;;1.02;0.40;;;;;;;;;;4933072;28;20026;-62
2022/05/28 12:11:53;;;;;;;0.82;0.30;;;;;;;;;;4934232;28;20383;-62
2022/05/28 12:14:21;;;;;;;1.10;0.40;;;;;;;;;;4931894;28;20056;-64
2022/05/28 12:17:16;;;;;;;1.20;0.40;;;;;;;;;;4933096;28;20364;-64
2022/05/28 12:19:48;;;;;;;1.27;0.82;;;;;;;;;;4919395;28;20444;-62
2022/05/28 12:22:28;;;;;;;4.43;0.75;;;;;;;;;;4931588;28;20396;-62
2022/05/28 12:25:12;;;;;;;4.45;0.47;;;;;;;;;;4933760;28;20345;-63
2022/05/28 12:28:07;;;;;;;2.83;0.60;;;;;;;;;;4916887;28;20435;-62
2022/05/28 12:30:37;;;;;;;0.85;0.60;;;;;;;;;;4913535;28;20034;-62
2022/05/28 12:33:03;;;;;;;1.40;0.63;;;;;;;;;;4913954;28;20523;-62
2022/05/28 12:35:38;;;;;;;1.45;0.60;;;;;;;;;;4913531;28;20590;-62
2022/05/28 12:38:08;;;;;;;2.20;0.60;;;;;;;;;;4912393;28;20446;-62
2022/05/28 12:40:45;;;;;;;1.10;0.50;;;;;;;;;;4913514;28;20580;-62
2022/05/28 12:43:19;;;;;;;4.53;0.50;;;;;;;;;;4914017;28;20448;-62
2022/05/28 12:45:47;;;;;;;1.73;0.73;;;;;;;;;;4914057;28;20408;-64
2022/05/28 12:48:30;;;;;;;1.10;0.40;;;;;;;;;;4913372;28;20401;-62
2022/05/28 12:51:18;;;;;;;0.30;0.20;;;;;;;;;;4913560;28;20397;-63
2022/05/28 12:53:50;;;;;;;2.85;0.70;;;;;;;;;;4913186;28;20504;-63
2022/05/28 12:56:43;;;;;;;1.02;0.57;;;;;;;;;;4915129;28;20354;-62
2022/05/28 12:59:31;;;;;;;1.38;0.40;;;;;;;;;;4887212;28;20493;-62
2022/05/28 13:02:02;;;;;;;1.98;0.73;;;;;;;;;;4913695;28;20426;-63
2022/05/28 13:04:36;;;;;;;0.88;0.50;;;;;;;;;;4912975;28;20442;-63
2022/05/28 13:07:02;;;;;;;1.38;0.63;;;;;;;;;;4913411;28;20471;-62
2022/05/28 13:09:29;;;;;;;1.88;0.60;;;;;;;;;;4912821;28;20333;-64
2022/05/28 13:12:10;;;;;;;1.10;0.55;;;;;;;;;;4914492;28;20327;-63
2022/05/28 13:15:12;;;;;;;2.92;0.70;;;;;;;;;;4914378;28;20546;-62
2022/05/28 13:17:58;;;;;;;0.70;0.50;;;;;;;;;;4901775;28;20369;-63
2022/05/28 13:20:35;;;;;;;2.22;0.40;;;;;;;;;;4912624;28;20319;-63
2022/05/28 13:23:13;;;;;;;0.80;0.40;;;;;;;;;;4912756;28;20342;-62
2022/05/28 13:26:03;;;;;;;1.58;0.60;;;;;;;;;;4912529;28;20430;-62
2022/05/28 13:28:47;;;;;;;1.90;1.10;;;;;;;;;;4931772;28;20116;-62
2022/05/28 13:31:14;;;;;;;0.85;0.50;;;;;;;;;;4931495;28;20108;-63
2022/05/28 13:33:40;;;;;;;1.42;0.70;;;;;;;;;;4931566;28;20435;-63
2022/05/28 13:36:09;;;;;;;2.25;0.60;;;;;;;;;;4930241;28;20461;-62
2022/05/28 13:38:45;;;;;;;0.77;0.57;;;;;;;;;;4931812;28;20448;-63
2022/05/28 13:41:17;;;;;;;2.97;1.20;;;;;;;;;;4931226;28;20428;-63
2022/05/28 13:43:49;;;;;;;5.00;1.05;;;;;;;;;;4930016;28;20422;-63
2022/05/28 13:46:15;;;;;;;1.13;0.70;;;;;;;;;;4931523;28;20450;-63
2022/05/28 13:48:45;;;;;;;1.80;0.75;;;;;;;;;;4931585;28;20521;-64
2022/05/28 13:51:11;;;;;;;2.65;1.08;;;;;;;;;;4930202;28;20426;-62
2022/05/28 13:53:39;;;;;;;4.20;1.20;;;;;;;;;;4931209;28;20053;-64
2022/05/28 13:56:06;;;;;;;1.15;0.85;;;;;;;;;;4930068;28;20361;-63
2022/05/28 13:58:40;;;;;;;1.50;0.60;;;;;;;;;;4932671;28;20402;-63
2022/05/28 14:01:20;;;;;;;1.75;0.80;;;;;;;;;;4930945;28;20508;-63
2022/05/28 14:03:46;;;;;;;1.25;0.90;;;;;;;;;;4931310;28;20345;-64
2022/05/28 14:06:19;;;;;;;1.75;0.80;;;;;;;;;;4931676;28;20365;-62
2022/05/28 14:08:48;;;;;;;2.25;0.68;;;;;;;;;;4930237;28;20031;-63
2022/05/28 14:11:20;;;;;;;3.33;0.57;;;;;;;;;;4931235;28;20373;-62
2022/05/28 14:13:48;;;;;;;3.53;0.60;;;;;;;;;;4929028;28;20461;-63
2022/05/28 14:16:37;;;;;;;3.55;1.38;;;;;;;;;;4930982;28;20417;-62
2022/05/28 14:19:06;;;;;;;3.10;0.52;;;;;;;;;;4918584;28;20361;-63
2022/05/28 14:21:37;;;;;;;2.17;0.93;;;;;;;;;;4930927;28;20089;-63
2022/05/28 14:24:14;;;;;;;1.23;0.68;;;;;;;;;;4930735;28;20523;-63
2022/05/28 14:26:39;;;;;;;1.42;0.77;;;;;;;;;;4928771;28;20393;-63
2022/05/28 14:29:05;;;;;;;1.08;0.70;;;;;;;;;;4930602;28;20050;-63
2022/05/28 14:31:30;;;;;;;1.95;0.77;;;;;;;;;;4930990;28;20368;-63
2022/05/28 14:33:56;;;;;;;1.17;0.75;;;;;;;;;;4930927;28;20085;-64
2022/05/28 14:36:30;;;;;;;0.93;0.60;;;;;;;;;;4931026;28;20360;-62
2022/05/28 14:39:16;;;;;;;1.05;0.40;;;;;;;;;;4930951;28;20414;-63
2022/05/28 14:41:47;;;;;;;1.63;0.60;;;;;;;;;;4930318;28;20073;-62
2022/05/28 14:44:21;;;;;;;0.90;0.55;;;;;;;;;;4931000;28;20317;-62
2022/05/28 14:46:47;;;;;;;1.60;0.77;;;;;;;;;;4929323;28;20453;-63
2022/05/28 14:49:33;;;;;;;2.28;0.70;;;;;;;;;;4930527;28;20410;-62
2022/05/28 14:52:00;;;;;;;1.80;0.70;;;;;;;;;;4930822;28;20417;-63
2022/05/28 14:54:31;;;;;;;2.22;0.70;;;;;;;;;;4929105;28;20341;-63
2022/05/28 14:56:57;;;;;;;0.75;0.60;;;;;;;;;;4930460;28;20030;-62
2022/05/28 14:59:25;;;;;;;0.57;0.50;;;;;;;;;;4930728;28;20318;-63
2022/05/28 15:01:50;;;;;;;0.70;0.50;;;;;;;;;;4931465;28;20294;-62
2022/05/28 15:04:34;;;;;;;3.65;0.50;;;;;;;;;;4930847;28;20342;-62
2022/05/28 15:07:03;;;;;;;1.63;0.57;;;;;;;;;;4930515;28;20495;-62
2022/05/28 15:09:30;;;;;;;2.10;0.70;;;;;;;;;;4930276;28;20453;-62
2022/05/28 15:12:07;;;;;;;1.30;0.45;;;;;;;;;;4930127;28;20503;-62
2022/05/28 15:14:33;;;;;;;1.15;0.60;;;;;;;;;;4929066;28;20311;-63